Nome, AK

1:47 AM AKDT on October 22, 2014 (GMT -0800)
White Mountain | Change Station
CLOSE
Current Station
Airport
Location: White Mountain,
Elevation: 266 ft
Nearby Weather Stations

Elev 266 ft 64.69 °N, 163.41 °W | Updated 49 minutes ago

Overcast
Overcast
29 °F
Feels Like 20 °F
N
9
Wind Variable Wind from NNW

Today
High -- | Low -- °F
--% Chance of Precip.
Yesterday
High -- | Low -- °F
Precip. -- in
10:15 AM 7:15 PM
Waning Crescent, 2% visible
Pressure 29.70 in
Visibility 10.0 miles
Clouds Overcast 6500 ft
Windchill 20 °F
Dew Point 21 °F
Humidity 72%
Rainfall 0.00 in
Snow Depth Not available.
UV 0 out of 12
Pollen Not available.
Air Quality Not available.
Flu Activity Sporadic
METAR PAWM 220858Z AUTO 34008KT 10SM OVC065 M02/M06 A2969 RMK AO2 SLP058 T10171061 400061017 51015 FZRANO

More Conditions Fewer Conditions

Pressure 29.70 in
Visibility 10.0 miles
Clouds Overcast 6500 ft
Windchill 20 °F
Dew Point 21 °F
Humidity 72%
Rainfall 0.00 in
Snow Depth Not available.
UV 0 out of 12
Pollen Not available.
Air Quality Not available.
Flu Activity Sporadic
METAR PAWM 220858Z AUTO 34008KT 10SM OVC065 M02/M06 A2969 RMK AO2 SLP058 T10171061 400061017 51015 FZRANO

More Conditions Fewer Conditions

10-Day Weather Forecast

Almanac

Astronomy

Oct. 22, 2014 Rise Set
Actual Time 10:15 AM AKDT 7:15 PM AKDT
Civil Twilight 9:24 AM AKDT 8:05 PM AKDT
Nautical Twilight 8:28 AM AKDT 9:02 PM AKDT
Astronomical Twilight 7:31 AM AKDT 9:58 PM AKDT
Moon 8:47 AM AKDT 7:03 PM AKDT
Length of Visible Light 10h 41m
Length of Day
8h 59m
Tomorrow will be 6m 36s shorter.
Waning Crescent, 2% of the Moon is Illuminated
Today
Waning Crescent
Oct 23
New
Oct 30
First Quarter
Nov 6
Full
Nov 14
Last Quarter

Today's Extremes

State Highs State Lows

Community

WunderPhotos

Upload Photos

1,763,900 photos uploaded!

Nearby

Snow Depth

Station Depth Elevation
Rocky Point 2 in 500 ft
Pargon Creek 0 in 300 ft
Gobblers Knob 1 in 2030 ft
Coldfoot 5 in 1040 ft
Susitna Valley High 0 in 375 ft

Earthquake Activity

City Distance Mag. Time & Date
No recent earthquake activity has been reported nearby.
Minimum magnitude displayed is 2.5.

Coastal Water Temperatures

Place Temperature
No Stations Reporting

Nearby Weather Stations